createdAt,value
2022-08-10T00:00:49.609Z,39.45
2022-08-10T00:03:15.997Z,39.71
2022-08-10T00:05:43.404Z,39.74
2022-08-10T00:08:08.763Z,39.68
2022-08-10T00:10:35.141Z,39.67
2022-08-10T00:13:01.524Z,39.75
2022-08-10T00:15:52.023Z,39.78
2022-08-10T00:17:54.299Z,39.86
2022-08-10T00:20:22.326Z,39.88
2022-08-10T00:22:54.951Z,39.91
2022-08-10T00:25:13.451Z,39.96
2022-08-10T00:27:51.709Z,39.93
2022-08-10T00:30:06.250Z,39.95
2022-08-10T00:32:32.942Z,39.80
2022-08-10T00:34:59.021Z,39.93
2022-08-10T00:37:25.411Z,39.92
2022-08-10T00:39:51.830Z,39.89
2022-08-10T00:42:18.166Z,39.89
2022-08-10T00:44:44.550Z,39.99
2022-08-10T00:47:35.943Z,39.99
2022-08-10T00:49:37.329Z,39.88
2022-08-10T00:52:03.720Z,39.97
2022-08-10T00:54:30.101Z,40.18
2022-08-10T00:57:15.727Z,39.87
2022-08-10T00:59:22.918Z,39.86
2022-08-10T01:02:08.857Z,39.94
2022-08-10T01:04:57.228Z,40.10
2022-08-10T01:06:42.109Z,40.19
2022-08-10T01:09:08.485Z,40.01
2022-08-10T01:12:37.284Z,39.93
2022-08-10T01:14:01.274Z,40.17
2022-08-10T01:16:27.670Z,40.03
2022-08-10T01:18:54.050Z,40.05
2022-08-10T01:21:20.428Z,40.08
2022-08-10T01:23:46.806Z,39.96
2022-08-10T01:26:31.149Z,39.97
2022-08-10T01:28:39.984Z,40.00
2022-08-10T01:31:06.371Z,39.84
2022-08-10T01:34:02.031Z,39.94
2022-08-10T01:35:59.165Z,39.83
2022-08-10T01:38:25.541Z,39.93
2022-08-10T01:40:51.932Z,39.98
2022-08-10T01:43:18.309Z,40.04
2022-08-10T01:45:46.024Z,39.96
2022-08-10T01:48:16.737Z,39.82
2022-08-10T01:50:59.755Z,39.96
2022-08-10T01:53:03.865Z,39.87
2022-08-10T01:55:30.259Z,39.97
2022-08-10T01:57:56.634Z,39.88
2022-08-10T02:00:23.020Z,39.88
2022-08-10T02:02:49.396Z,39.86
2022-08-10T02:05:15.788Z,39.91
2022-08-10T02:07:42.161Z,39.83
2022-08-10T02:10:08.551Z,39.88
2022-08-10T02:12:35.093Z,39.87
2022-08-10T02:15:01.327Z,39.92
2022-08-10T02:18:00.212Z,39.95
2022-08-10T02:19:54.090Z,40.01
2022-08-10T02:22:45.952Z,40.00
2022-08-10T02:24:46.854Z,40.08
2022-08-10T02:27:13.231Z,40.11
2022-08-10T02:29:42.241Z,40.14
2022-08-10T02:32:05.995Z,40.14
2022-08-10T02:34:32.398Z,40.18
2022-08-10T02:36:58.759Z,40.14
2022-08-10T02:39:25.201Z,40.17
2022-08-10T02:45:11.044Z,40.19
2022-08-10T02:45:26.035Z,40.21
2022-08-10T02:46:44.312Z,40.27
2022-08-10T02:49:10.717Z,40.24
2022-08-10T02:52:06.206Z,40.22
2022-08-10T02:54:03.493Z,40.20
2022-08-10T02:56:29.876Z,40.25
2022-08-10T02:58:56.250Z,40.32
2022-08-10T03:01:22.700Z,40.34
2022-08-10T03:03:49.033Z,40.42
2022-08-10T03:06:15.425Z,40.46
2022-08-10T03:08:41.792Z,40.41
2022-08-10T03:11:08.187Z,40.42
2022-08-10T03:13:34.560Z,40.37
2022-08-10T03:16:00.944Z,40.44
2022-08-10T03:18:27.324Z,40.49
2022-08-10T03:20:53.730Z,40.56
2022-08-10T03:23:20.082Z,40.48
2022-08-10T03:25:52.630Z,40.48
2022-08-10T03:28:12.937Z,40.50
2022-08-10T03:30:39.317Z,40.47
2022-08-10T03:33:05.693Z,40.54
2022-08-10T03:35:32.096Z,40.61
2022-08-10T03:37:59.839Z,40.67
2022-08-10T03:40:24.856Z,40.64
2022-08-10T03:42:51.238Z,40.61
2022-08-10T03:45:17.627Z,40.63
2022-08-10T03:47:44.006Z,40.61
2022-08-10T03:50:45.532Z,40.68
2022-08-10T03:52:36.905Z,40.69
2022-08-10T03:55:03.208Z,40.74
2022-08-10T03:57:29.585Z,40.70
2022-08-10T03:59:57.364Z,40.68
2022-08-10T04:02:46.140Z,40.71
2022-08-10T04:04:48.731Z,40.60
2022-08-10T04:07:15.110Z,40.66
2022-08-10T04:09:54.118Z,40.69
2022-08-10T04:12:07.875Z,40.76
2022-08-10T04:14:47.377Z,40.90
2022-08-10T04:17:00.662Z,45.37
2022-08-10T04:19:27.040Z,41.68
2022-08-10T04:21:53.453Z,41.71
2022-08-10T04:24:27.036Z,41.80
2022-08-10T04:26:46.174Z,42.08
2022-08-10T04:29:12.564Z,42.03
2022-08-10T04:31:38.938Z,42.16
2022-08-10T04:34:08.902Z,42.12
2022-08-10T04:36:31.701Z,42.02
2022-08-10T04:38:58.128Z,41.99
2022-08-10T04:41:24.507Z,41.89
2022-08-10T04:43:50.893Z,41.83
2022-08-10T04:46:55.517Z,41.86
2022-08-10T04:48:59.704Z,41.96
2022-08-10T04:51:11.060Z,41.96
2022-08-10T04:54:05.317Z,41.93
2022-08-10T04:56:02.901Z,41.88
2022-08-10T04:58:29.288Z,41.92
2022-08-10T05:00:55.740Z,41.88
2022-08-10T05:03:23.440Z,41.87
2022-08-10T05:05:48.624Z,41.99
2022-08-10T05:08:14.834Z,41.96
2022-08-10T05:10:41.210Z,41.99
2022-08-10T05:13:07.589Z,42.12
2022-08-10T05:15:33.977Z,42.11
2022-08-10T05:18:08.258Z,42.16
2022-08-10T05:20:26.875Z,42.25
2022-08-10T05:22:53.342Z,42.28
2022-08-10T05:25:19.724Z,42.45
2022-08-10T05:27:46.128Z,42.49
2022-08-10T05:30:12.513Z,42.78
2022-08-10T05:32:55.632Z,42.73
2022-08-10T05:35:05.305Z,42.94
2022-08-10T05:38:13.167Z,43.18
2022-08-10T05:39:58.174Z,43.33
2022-08-10T05:42:24.499Z,43.40
2022-08-10T05:44:50.893Z,43.47
2022-08-10T05:47:17.266Z,43.67
2022-08-10T05:49:43.649Z,43.98
2022-08-10T05:52:10.033Z,44.06
2022-08-10T05:54:36.417Z,44.34
2022-08-10T05:57:02.803Z,44.48
2022-08-10T06:00:33.082Z,44.77
2022-08-10T06:02:32.829Z,44.92
2022-08-10T06:04:21.957Z,45.14
2022-08-10T06:06:48.345Z,45.19
2022-08-10T06:09:14.732Z,45.46
2022-08-10T06:12:27.008Z,45.60
2022-08-10T06:14:13.870Z,45.67
2022-08-10T06:16:34.804Z,45.72
2022-08-10T06:19:00.261Z,45.88
2022-08-10T06:21:26.648Z,46.07
2022-08-10T06:23:53.022Z,46.21
2022-08-10T06:26:21.624Z,46.24
2022-08-10T06:29:02.006Z,46.24
2022-08-10T06:31:12.287Z,46.38
2022-08-10T06:33:38.665Z,46.49
2022-08-10T06:36:05.087Z,46.85
2022-08-10T06:38:31.465Z,46.76
2022-08-10T06:40:57.862Z,46.79
2022-08-10T06:43:24.326Z,46.70
2022-08-10T06:46:06.965Z,46.80
2022-08-10T06:48:17.117Z,46.92
2022-08-10T06:50:55.919Z,46.95
2022-08-10T06:53:09.927Z,47.01
2022-08-10T06:55:40.135Z,47.07
2022-08-10T06:58:02.708Z,47.19
2022-08-10T07:00:34.370Z,47.13
2022-08-10T07:02:55.642Z,47.41
2022-08-10T07:05:22.019Z,47.51
2022-08-10T07:07:48.406Z,47.91
2022-08-10T07:10:14.854Z,47.80
2022-08-10T07:12:41.250Z,48.04
2022-08-10T07:15:07.652Z,48.34
2022-08-10T07:17:39.132Z,48.44
2022-08-10T07:20:00.475Z,48.45
2022-08-10T07:23:27.175Z,48.60
2022-08-10T07:24:53.282Z,48.73
2022-08-10T07:27:19.706Z,48.84
2022-08-10T07:29:54.314Z,48.91
2022-08-10T07:32:12.492Z,48.96
2022-08-10T07:34:38.883Z,49.03
2022-08-10T07:37:05.338Z,49.06
2022-08-10T07:40:02.407Z,49.15
2022-08-10T07:41:59.039Z,49.17
2022-08-10T07:44:25.428Z,49.15
2022-08-10T07:46:51.818Z,49.23
2022-08-10T07:49:19.659Z,49.19
2022-08-10T07:51:44.595Z,49.17
2022-08-10T07:54:10.998Z,49.13
2022-08-10T07:56:48.837Z,49.25
2022-08-10T07:59:06.748Z,49.08
2022-08-10T08:01:33.218Z,49.18
2022-08-10T08:04:05.500Z,49.17
2022-08-10T08:06:29.385Z,49.17
2022-08-10T08:08:55.880Z,49.17
2022-08-10T08:11:25.540Z,49.34
2022-08-10T08:13:48.705Z,49.46
2022-08-10T08:16:15.116Z,49.26
2022-08-10T08:18:41.917Z,49.28
2022-08-10T08:21:13.672Z,49.48
2022-08-10T08:24:08.089Z,49.47
2022-08-10T08:26:00.715Z,49.54
2022-08-10T08:28:27.105Z,49.55
2022-08-10T08:30:53.489Z,49.67
2022-08-10T08:33:42.215Z,49.40
2022-08-10T08:35:46.272Z,49.43
2022-08-10T08:38:31.411Z,49.05
2022-08-10T08:40:39.073Z,48.96
2022-08-10T08:43:05.473Z,49.01
2022-08-10T08:45:31.848Z,49.08
2022-08-10T08:48:03.353Z,49.06
2022-08-10T08:50:24.610Z,49.09
2022-08-10T08:52:51.129Z,49.00
2022-08-10T08:56:04.654Z,49.13
2022-08-10T08:57:50.661Z,49.24
2022-08-10T09:00:10.153Z,49.22
2022-08-10T09:02:36.701Z,49.27
2022-08-10T09:05:02.977Z,49.19
2022-08-10T09:07:59.710Z,49.15
2022-08-10T09:09:55.743Z,49.23
2022-08-10T09:12:22.140Z,49.13
2022-08-10T09:14:49.096Z,49.21
2022-08-10T09:17:14.948Z,49.09
2022-08-10T09:19:41.325Z,48.95
2022-08-10T09:22:17.760Z,49.00
2022-08-10T09:24:34.095Z,49.14
2022-08-10T09:27:00.483Z,49.22
2022-08-10T09:29:26.866Z,49.22
2022-08-10T09:32:57.388Z,49.26
2022-08-10T09:36:25.994Z,49.23
2022-08-10T09:36:46.121Z,49.07
2022-08-10T09:40:06.619Z,48.84
2022-08-10T09:41:39.023Z,48.75
2022-08-10T09:44:05.377Z,48.82
2022-08-10T09:46:31.757Z,48.89
2022-08-10T09:48:58.169Z,48.78
2022-08-10T09:51:44.873Z,48.67
2022-08-10T09:53:54.045Z,48.65
2022-08-10T09:56:24.226Z,48.78
2022-08-10T09:58:46.843Z,48.78
2022-08-10T10:01:52.866Z,48.79
2022-08-10T10:03:39.648Z,48.84
2022-08-10T10:06:05.993Z,48.98
2022-08-10T10:08:32.373Z,48.95
2022-08-10T10:10:58.764Z,49.18
2022-08-10T10:13:41.592Z,49.33
2022-08-10T10:15:51.574Z,49.34
2022-08-10T10:18:17.961Z,49.40
2022-08-10T10:20:44.468Z,49.07
2022-08-10T10:23:10.848Z,48.92
2022-08-10T10:25:50.041Z,49.15
2022-08-10T10:28:03.663Z,49.19
2022-08-10T10:30:30.057Z,49.14
2022-08-10T10:32:58.316Z,49.14
2022-08-10T10:35:24.048Z,49.08
2022-08-10T10:38:02.872Z,49.07
2022-08-10T10:40:15.608Z,49.01
2022-08-10T10:42:45.159Z,49.15
2022-08-10T10:45:08.416Z,49.24
2022-08-10T10:47:35.047Z,49.33
2022-08-10T10:50:01.181Z,49.10
2022-08-10T10:52:27.560Z,49.52
2022-08-10T10:54:53.944Z,49.10
2022-08-10T10:57:20.327Z,49.26
2022-08-10T10:59:55.591Z,49.54
2022-08-10T11:04:38.347Z,49.61
2022-08-10T11:07:04.732Z,49.63
2022-08-10T11:10:03.616Z,49.63
2022-08-10T11:12:02.100Z,49.66
2022-08-10T11:14:29.243Z,49.80
2022-08-10T11:16:55.876Z,49.87
2022-08-10T11:19:17.100Z,49.86
2022-08-10T11:21:43.480Z,49.78
2022-08-10T11:24:48.228Z,49.67
2022-08-10T11:26:37.382Z,49.92
2022-08-10T11:29:02.857Z,49.79
2022-08-10T11:31:29.505Z,49.79
2022-08-10T11:36:23.230Z,49.94
2022-08-10T11:39:13.039Z,49.82
2022-08-10T11:42:07.692Z,50.03
2022-08-10T11:43:41.537Z,49.86
2022-08-10T11:46:08.228Z,49.93
2022-08-10T11:48:53.319Z,49.87
2022-08-10T11:51:01.664Z,49.99
2022-08-10T11:53:27.051Z,50.17
2022-08-10T11:55:53.829Z,50.31
2022-08-10T11:58:20.652Z,50.01
2022-08-10T12:00:47.045Z,50.07
2022-08-10T12:03:13.438Z,50.16
2022-08-10T12:05:52.315Z,50.44
2022-08-10T12:10:04.279Z,50.54
2022-08-10T12:10:34.460Z,50.62
2022-08-10T12:12:59.047Z,50.53
2022-08-10T12:15:25.497Z,50.41
2022-08-10T12:17:51.896Z,50.49
2022-08-10T12:20:18.291Z,50.41
2022-08-10T12:22:44.737Z,50.51
2022-08-10T12:25:11.132Z,50.43
2022-08-10T12:27:37.565Z,50.16
2022-08-10T12:30:03.970Z,50.06
2022-08-10T12:32:30.365Z,50.03
2022-08-10T12:34:56.772Z,50.04
2022-08-10T12:37:23.171Z,50.25
2022-08-10T12:39:50.548Z,50.17
2022-08-10T12:42:36.979Z,50.19
2022-08-10T12:44:42.855Z,50.16
2022-08-10T12:47:14.573Z,50.18
2022-08-10T12:49:35.176Z,50.08
2022-08-10T12:52:01.594Z,50.17
2022-08-10T12:54:31.945Z,50.25
2022-08-10T12:56:54.381Z,50.45
2022-08-10T12:59:20.906Z,50.32
2022-08-10T13:02:07.681Z,50.51
2022-08-10T13:04:21.707Z,50.67
2022-08-10T13:06:40.099Z,50.67
2022-08-10T13:09:06.491Z,50.40
2022-08-10T13:12:36.106Z,50.53
2022-08-10T13:13:59.324Z,50.66
2022-08-10T13:16:25.728Z,50.60
2022-08-10T13:18:52.140Z,50.49
2022-08-10T13:21:20.013Z,50.48
2022-08-10T13:24:01.281Z,50.67
2022-08-10T13:26:11.426Z,50.78
2022-08-10T13:28:39.917Z,50.79
2022-08-10T13:31:04.163Z,50.85
2022-08-10T13:34:39.343Z,50.89
2022-08-10T13:35:56.930Z,50.84
2022-08-10T13:38:23.326Z,50.92
2022-08-10T13:40:49.733Z,51.01
2022-08-10T13:43:16.113Z,50.95
2022-08-10T13:45:46.362Z,51.00
2022-08-10T13:48:09.010Z,51.08
2022-08-10T13:50:37.533Z,51.12
2022-08-10T13:53:01.775Z,50.99
2022-08-10T13:55:28.187Z,50.88
2022-08-10T13:57:57.573Z,50.93
2022-08-10T14:00:36.676Z,50.99
2022-08-10T14:02:50.347Z,50.99
2022-08-10T14:05:16.846Z,50.99
2022-08-10T14:08:00.232Z,51.07
2022-08-10T14:10:09.726Z,51.08
2022-08-10T14:12:36.296Z,51.05
2022-08-10T14:15:02.585Z,51.18
2022-08-10T14:17:28.988Z,51.20
2022-08-10T14:19:58.688Z,51.22
2022-08-10T14:22:33.880Z,51.31
2022-08-10T14:24:48.160Z,51.30
2022-08-10T14:27:14.540Z,51.27
2022-08-10T14:29:40.927Z,51.38
2022-08-10T14:32:07.304Z,51.35
2022-08-10T14:36:08.424Z,51.28
2022-08-10T14:37:00.073Z,51.29
2022-08-10T14:39:26.535Z,51.31
2022-08-10T14:42:03.366Z,51.37
2022-08-10T14:44:19.258Z,51.44
2022-08-10T14:46:45.635Z,51.24
2022-08-10T14:49:26.224Z,51.13
2022-08-10T14:51:44.306Z,51.10
2022-08-10T14:54:07.252Z,50.98
2022-08-10T14:56:33.652Z,51.24
2022-08-10T14:59:07.170Z,51.30
2022-08-10T15:01:26.495Z,51.21
2022-08-10T15:04:01.579Z,51.05
2022-08-10T15:06:19.233Z,51.07
2022-08-10T15:08:47.224Z,51.05
2022-08-10T15:12:11.630Z,51.09
2022-08-10T15:13:38.414Z,51.09
2022-08-10T15:16:13.387Z,51.05
2022-08-10T15:18:31.194Z,51.14
2022-08-10T15:20:57.579Z,51.06
2022-08-10T15:23:29.819Z,51.19
2022-08-10T15:25:57.630Z,51.16
2022-08-10T15:28:16.888Z,51.04
2022-08-10T15:30:43.194Z,50.98
2022-08-10T15:33:09.548Z,51.02
2022-08-10T15:35:36.410Z,50.98
2022-08-10T15:38:02.315Z,50.84
2022-08-10T15:40:31.215Z,50.92
2022-08-10T15:42:55.101Z,50.91
2022-08-10T15:45:21.508Z,50.88
2022-08-10T15:47:47.909Z,51.04
2022-08-10T15:50:14.408Z,51.08
2022-08-10T15:52:59.888Z,51.16
2022-08-10T15:55:42.761Z,51.17
2022-08-10T15:57:33.639Z,51.23
2022-08-10T15:59:59.962Z,51.17
2022-08-10T16:02:26.392Z,51.27
2022-08-10T16:04:52.724Z,51.25
2022-08-10T16:07:19.176Z,51.35
2022-08-10T16:10:10.491Z,51.64
2022-08-10T16:12:11.973Z,51.43
2022-08-10T16:14:38.334Z,51.50
2022-08-10T16:17:04.723Z,51.76
2022-08-10T16:19:31.097Z,51.64
2022-08-10T16:21:57.488Z,51.61
2022-08-10T16:24:23.865Z,51.64
2022-08-10T16:26:50.251Z,51.55
2022-08-10T16:29:16.692Z,51.78
2022-08-10T16:31:43.083Z,51.77
2022-08-10T16:34:09.458Z,51.86
2022-08-10T16:36:35.871Z,51.85
2022-08-10T16:39:02.257Z,51.82
2022-08-10T16:42:03.869Z,51.78
2022-08-10T16:43:55.065Z,51.81
2022-08-10T16:46:21.451Z,51.63
2022-08-10T16:48:49.442Z,51.61
2022-08-10T16:51:14.813Z,51.65
2022-08-10T16:53:40.662Z,51.69
2022-08-10T16:56:07.044Z,51.57
2022-08-10T16:58:33.452Z,51.58
2022-08-10T17:01:00.009Z,51.51
2022-08-10T17:04:07.650Z,51.51
2022-08-10T17:06:11.386Z,51.53
2022-08-10T17:08:19.143Z,51.53
2022-08-10T17:10:45.543Z,51.47
2022-08-10T17:13:11.925Z,51.43
2022-08-10T17:15:38.318Z,51.30
2022-08-10T17:18:04.701Z,51.35
2022-08-10T17:20:32.763Z,51.26
2022-08-10T17:22:57.480Z,51.29
2022-08-10T17:25:23.904Z,51.27
2022-08-10T17:28:05.749Z,51.29
2022-08-10T17:30:30.044Z,51.18
2022-08-10T17:32:44.092Z,51.23
2022-08-10T17:35:09.454Z,51.15
2022-08-10T17:37:35.968Z,51.20
2022-08-10T17:40:02.261Z,51.20
2022-08-10T17:42:28.633Z,51.06
2022-08-10T17:44:55.130Z,51.03
2022-08-10T17:47:21.501Z,50.96
2022-08-10T17:49:47.999Z,50.92
2022-08-10T17:52:14.374Z,50.88
2022-08-10T17:54:40.770Z,50.80
2022-08-10T17:57:07.317Z,50.56
2022-08-10T17:59:33.707Z,50.67
2022-08-10T18:02:02.222Z,50.65
2022-08-10T18:04:26.619Z,50.56
2022-08-10T18:06:53.065Z,50.54
2022-08-10T18:09:19.443Z,50.40
2022-08-10T18:11:45.872Z,50.32
2022-08-10T18:14:12.252Z,50.32
2022-08-10T18:16:41.772Z,50.27
2022-08-10T18:19:05.207Z,50.23
2022-08-10T18:21:31.588Z,50.26
2022-08-10T18:23:57.988Z,50.24
2022-08-10T18:26:24.368Z,50.19
2022-08-10T18:28:50.779Z,50.12
2022-08-10T18:31:17.159Z,50.15
2022-08-10T18:33:43.547Z,50.10
2022-08-10T18:36:09.929Z,50.04
2022-08-10T18:38:36.324Z,50.06
2022-08-10T18:41:02.790Z,50.06
2022-08-10T18:44:06.268Z,50.04
2022-08-10T18:45:55.569Z,50.07
2022-08-10T18:48:21.952Z,50.01
2022-08-10T18:50:48.328Z,49.99
2022-08-10T18:53:14.716Z,50.09
2022-08-10T18:55:46.134Z,50.07
2022-08-10T18:58:07.481Z,50.05
2022-08-10T19:00:33.853Z,50.09
2022-08-10T19:03:00.247Z,50.12
2022-08-10T19:05:31.434Z,50.03
2022-08-10T19:07:53.011Z,50.01
2022-08-10T19:10:19.422Z,49.96
2022-08-10T19:12:45.811Z,50.00
2022-08-10T19:15:12.185Z,50.00
2022-08-10T19:17:59.133Z,49.91
2022-08-10T19:20:05.021Z,49.96
2022-08-10T19:22:31.407Z,49.92
2022-08-10T19:24:57.794Z,50.01
2022-08-10T19:27:24.179Z,49.96
2022-08-10T19:30:11.757Z,49.86
2022-08-10T19:32:16.944Z,49.86
2022-08-10T19:34:43.323Z,49.87
2022-08-10T19:37:09.712Z,49.87
2022-08-10T19:39:37.912Z,49.89
2022-08-10T19:42:11.347Z,49.85
2022-08-10T19:44:28.882Z,49.85
2022-08-10T19:46:55.336Z,49.86
2022-08-10T19:49:21.799Z,49.95
2022-08-10T19:51:48.979Z,49.96
2022-08-10T19:54:14.567Z,49.97
2022-08-10T19:56:40.962Z,50.05
2022-08-10T19:59:07.365Z,50.05
2022-08-10T20:01:55.270Z,50.13
2022-08-10T20:04:00.139Z,50.15
2022-08-10T20:06:26.576Z,50.05
2022-08-10T20:08:52.946Z,50.00
2022-08-10T20:11:46.115Z,50.01
2022-08-10T20:13:45.762Z,50.05
2022-08-10T20:16:12.121Z,50.11
2022-08-10T20:18:38.499Z,50.07
2022-08-10T20:21:05.092Z,49.99
2022-08-10T20:23:31.434Z,50.07
2022-08-10T20:25:57.812Z,50.10
2022-08-10T20:28:24.196Z,49.98
2022-08-10T20:30:50.657Z,49.91
2022-08-10T20:33:17.040Z,49.91
2022-08-10T20:35:43.427Z,49.98
2022-08-10T20:38:10.342Z,49.89
2022-08-10T20:40:36.264Z,49.87
2022-08-10T20:43:02.642Z,49.99
2022-08-10T20:45:41.547Z,49.96
2022-08-10T20:47:55.413Z,49.99
2022-08-10T20:50:21.892Z,49.89
2022-08-10T20:52:48.288Z,49.91
2022-08-10T20:55:14.671Z,49.91
2022-08-10T20:57:56.207Z,49.86
2022-08-10T21:00:07.434Z,49.91
2022-08-10T21:02:33.941Z,49.87
2022-08-10T21:05:00.334Z,49.91
2022-08-10T21:07:57.871Z,49.96
2022-08-10T21:09:53.066Z,50.07
2022-08-10T21:12:19.459Z,49.86
2022-08-10T21:14:45.849Z,49.95
2022-08-10T21:17:12.290Z,49.82
2022-08-10T21:19:38.790Z,50.09
2022-08-10T21:22:05.088Z,49.87
2022-08-10T21:24:31.503Z,49.93
2022-08-10T21:26:58.002Z,49.96
2022-08-10T21:29:39.641Z,49.98
2022-08-10T21:31:50.677Z,50.00
2022-08-10T21:34:17.025Z,49.81
2022-08-10T21:36:43.411Z,49.91
2022-08-10T21:39:10.039Z,49.89
2022-08-10T21:41:56.558Z,49.74
2022-08-10T21:44:02.584Z,49.86
2022-08-10T21:46:28.975Z,49.84
2022-08-10T21:48:57.607Z,49.76
2022-08-10T21:51:24.303Z,49.72
2022-08-10T21:53:49.169Z,49.90
2022-08-10T21:56:14.609Z,49.83
2022-08-10T21:58:40.934Z,49.70
2022-08-10T22:01:07.339Z,49.72
2022-08-10T22:03:39.705Z,49.62
2022-08-10T22:06:00.114Z,49.77
2022-08-10T22:08:26.474Z,49.64
2022-08-10T22:10:52.854Z,49.60
2022-08-10T22:13:19.588Z,49.49
2022-08-10T22:16:10.411Z,49.55
2022-08-10T22:18:12.267Z,49.56
2022-08-10T22:20:38.517Z,49.55
2022-08-10T22:23:18.878Z,49.40
2022-08-10T22:25:31.184Z,49.52
2022-08-10T22:27:57.910Z,49.42
2022-08-10T22:30:24.023Z,49.42
2022-08-10T22:32:50.402Z,49.39
2022-08-10T22:35:16.787Z,49.38
2022-08-10T22:37:43.170Z,49.35
2022-08-10T22:40:12.765Z,49.54
2022-08-10T22:42:58.804Z,49.38
2022-08-10T22:45:02.307Z,49.42
2022-08-10T22:47:28.694Z,49.41
2022-08-10T22:50:00.178Z,49.46
2022-08-10T22:52:21.462Z,49.43
2022-08-10T22:54:47.879Z,49.39
2022-08-10T22:57:14.270Z,49.46
2022-08-10T22:59:40.647Z,49.40
2022-08-10T23:02:09.230Z,49.28
2022-08-10T23:04:35.820Z,49.25
2022-08-10T23:06:59.788Z,49.30
2022-08-10T23:09:26.171Z,49.52
2022-08-10T23:11:52.560Z,49.35
2022-08-10T23:14:18.952Z,49.34
2022-08-10T23:16:45.338Z,49.26
2022-08-10T23:19:11.735Z,49.22
2022-08-10T23:22:03.123Z,49.38
2022-08-10T23:24:04.481Z,49.24
2022-08-10T23:26:30.924Z,49.24
2022-08-10T23:29:05.221Z,49.29
2022-08-10T23:32:00.597Z,49.33
2022-08-10T23:33:50.037Z,49.26
2022-08-10T23:36:34.594Z,49.31
2022-08-10T23:38:44.204Z,49.18
2022-08-10T23:41:09.184Z,49.17
2022-08-10T23:44:00.831Z,49.17
2022-08-10T23:46:01.981Z,49.21
2022-08-10T23:48:28.358Z,49.22
2022-08-10T23:50:58.477Z,49.21
2022-08-10T23:53:21.127Z,49.38
2022-08-10T23:55:49.433Z,49.20
2022-08-10T23:58:33.273Z,49.25
